createdAt,value
2023-04-02T00:00:06.425Z,49.80
2023-04-02T00:02:33.089Z,49.54
2023-04-02T00:04:59.724Z,49.54
2023-04-02T00:07:26.260Z,49.26
2023-04-02T00:09:52.820Z,49.43
2023-04-02T00:12:19.359Z,49.17
2023-04-02T00:14:45.915Z,48.92
2023-04-02T00:17:12.453Z,49.42
2023-04-02T00:19:39.006Z,49.63
2023-04-02T00:22:05.567Z,49.15
2023-04-02T00:24:32.110Z,49.18
2023-04-02T00:26:58.646Z,49.36
2023-04-02T00:29:25.188Z,49.87
2023-04-02T00:31:51.764Z,49.72
2023-04-02T00:34:18.394Z,49.34
2023-04-02T00:36:44.988Z,49.42
2023-04-02T00:39:11.544Z,49.28
2023-04-02T00:41:38.112Z,49.35
2023-04-02T00:44:04.684Z,49.57
2023-04-02T00:46:31.273Z,49.68
2023-04-02T00:48:57.874Z,49.56
2023-04-02T00:51:24.441Z,49.49
2023-04-02T00:53:51.026Z,49.30
2023-04-02T00:56:17.592Z,49.05
2023-04-02T00:58:44.145Z,49.23
2023-04-02T01:01:10.723Z,48.96
2023-04-02T05:06:24.389Z,48.86
2023-04-02T05:08:50.950Z,48.99
2023-04-02T05:11:17.530Z,49.17
2023-04-02T05:13:44.081Z,48.82
2023-04-02T05:16:10.655Z,49.16
2023-04-02T05:18:37.238Z,49.08
2023-04-02T05:21:03.805Z,48.99
2023-04-02T05:23:30.348Z,49.05
2023-04-02T05:25:56.892Z,48.66
2023-04-02T05:28:23.420Z,49.01
2023-04-02T05:30:49.969Z,48.76
2023-04-02T05:33:16.495Z,48.93
2023-04-02T05:35:43.032Z,49.01
2023-04-02T05:38:09.595Z,49.16
2023-04-02T05:40:36.134Z,48.96
2023-04-02T05:43:02.671Z,48.85
2023-04-02T05:45:29.241Z,48.84
2023-04-02T05:47:55.803Z,48.56
2023-04-02T05:50:22.381Z,48.72
2023-04-02T05:52:48.954Z,48.67
2023-04-02T05:55:15.499Z,48.65
2023-04-02T05:57:49.540Z,49.03
2023-04-02T06:00:23.364Z,49.02
2023-04-02T06:02:49.943Z,48.83
2023-04-02T06:05:16.497Z,48.67
2023-04-02T06:07:43.060Z,48.47
2023-04-02T06:10:09.602Z,48.42
2023-04-02T06:12:36.140Z,48.47
2023-04-02T06:15:02.839Z,48.62
2023-04-02T06:17:29.474Z,48.68
2023-04-02T06:19:56.047Z,48.59
2023-04-02T06:22:22.593Z,48.70
2023-04-02T06:24:49.159Z,48.58
2023-04-02T06:27:15.696Z,48.87
2023-04-02T06:29:42.235Z,48.50
2023-04-02T06:32:08.787Z,48.49
2023-04-02T06:34:35.390Z,48.47
2023-04-02T06:37:01.921Z,48.51
2023-04-02T06:39:28.458Z,48.57
2023-04-02T06:41:55.000Z,48.29
2023-04-02T06:44:21.578Z,48.73
2023-04-02T06:46:49.050Z,48.51
2023-04-02T06:49:17.099Z,48.36
2023-04-02T06:51:43.631Z,48.68
2023-04-02T06:54:10.156Z,48.26
2023-04-02T06:56:36.708Z,48.78
2023-04-02T06:59:03.250Z,48.80
2023-04-02T07:01:29.867Z,48.51
2023-04-02T07:03:56.413Z,48.84
2023-04-02T07:06:22.958Z,48.40
2023-04-02T07:08:49.497Z,48.70
2023-04-02T07:11:16.115Z,48.59
2023-04-02T07:13:42.949Z,48.47
2023-04-02T07:16:09.605Z,48.76
2023-04-02T07:18:36.355Z,48.76
2023-04-02T07:21:02.917Z,49.00
2023-04-02T07:23:29.457Z,49.35
2023-04-02T07:25:56.002Z,49.42
2023-04-02T07:28:23.106Z,49.76
2023-04-02T07:30:49.792Z,49.86
2023-04-02T07:33:16.354Z,49.86
2023-04-02T07:35:43.008Z,49.87
2023-04-02T07:38:09.650Z,49.87
2023-04-02T07:40:36.189Z,49.99
2023-04-02T07:43:02.718Z,50.05
2023-04-02T07:45:29.260Z,50.02
2023-04-02T07:47:55.821Z,49.91
2023-04-02T07:50:22.371Z,50.02
2023-04-02T07:52:48.928Z,49.89
2023-04-02T07:55:15.466Z,49.95
2023-04-02T07:57:43.646Z,49.88
2023-04-02T08:00:11.515Z,49.73
2023-04-02T08:02:38.089Z,49.63
2023-04-02T08:05:04.720Z,49.36
2023-04-02T08:07:31.263Z,48.97
2023-04-02T08:09:57.827Z,48.93
2023-04-02T08:12:24.361Z,48.86
2023-04-02T08:14:50.891Z,48.91
2023-04-02T08:17:17.447Z,48.63
2023-04-02T08:19:54.056Z,48.84
2023-04-02T08:22:21.489Z,48.72
2023-04-02T08:24:48.037Z,48.57
2023-04-02T08:27:14.584Z,48.43
2023-04-02T08:29:41.168Z,48.41
2023-04-02T08:32:07.858Z,48.31
2023-04-02T08:34:34.416Z,48.40
2023-04-02T08:37:00.967Z,48.37
2023-04-02T08:39:27.507Z,47.84
2023-04-02T08:41:54.087Z,47.99
2023-04-02T08:44:20.626Z,48.29
2023-04-02T08:46:47.218Z,47.84
2023-04-02T08:49:13.788Z,47.15
2023-04-02T08:51:40.329Z,47.50
2023-04-02T08:54:06.859Z,47.27
2023-04-02T08:56:33.414Z,47.34
2023-04-02T08:58:59.974Z,47.51
2023-04-02T09:01:26.565Z,47.83
2023-04-02T09:03:53.149Z,47.67
2023-04-02T09:06:19.695Z,47.69
2023-04-02T09:08:46.244Z,48.12
2023-04-02T09:11:12.821Z,47.97
2023-04-02T09:13:39.440Z,47.74
2023-04-02T09:16:06.071Z,48.01
2023-04-02T09:18:32.662Z,48.57
2023-04-02T09:20:59.217Z,48.46
2023-04-02T09:23:25.776Z,48.55
2023-04-02T09:26:03.410Z,48.25
2023-04-02T09:28:30.907Z,48.75
2023-04-02T09:30:57.461Z,48.59
2023-04-02T09:33:23.994Z,48.46
2023-04-02T09:35:50.638Z,48.53
2023-04-02T09:38:17.246Z,48.49
2023-04-02T09:40:43.814Z,48.45
2023-04-02T09:43:10.393Z,48.41
2023-04-02T09:45:37.078Z,48.43
2023-04-02T09:48:03.829Z,47.73
2023-04-02T09:50:30.460Z,47.66
2023-04-02T09:52:57.016Z,47.65
2023-04-02T09:55:23.567Z,47.80
2023-04-02T09:57:50.131Z,47.69
2023-04-02T10:00:29.868Z,47.20
2023-04-02T10:02:58.382Z,47.99
2023-04-02T10:05:39.395Z,48.37
2023-04-02T10:08:07.406Z,47.90
2023-04-02T10:10:34.169Z,47.66
2023-04-02T10:13:00.877Z,47.15
2023-04-02T10:15:27.431Z,47.50
2023-04-02T10:17:53.974Z,47.76
2023-04-02T10:20:20.529Z,48.27
2023-04-02T10:22:47.071Z,48.20
2023-04-02T10:25:13.638Z,48.20
2023-04-02T10:27:40.186Z,48.63
2023-04-02T10:30:06.729Z,49.13
2023-04-02T10:32:33.327Z,49.93
2023-04-02T10:34:59.921Z,50.80
2023-04-02T10:37:26.455Z,51.32
2023-04-02T10:39:53.015Z,51.21
2023-04-02T10:42:19.559Z,51.81
2023-04-02T10:44:46.152Z,50.88
2023-04-02T10:47:12.716Z,51.80
2023-04-02T10:49:39.312Z,51.59
2023-04-02T10:52:05.930Z,52.55
2023-04-02T10:54:32.507Z,53.34
2023-04-02T10:56:59.072Z,53.54
2023-04-02T10:59:25.635Z,54.08
2023-04-02T11:01:52.285Z,54.10
2023-04-02T11:04:18.906Z,54.27
2023-04-02T11:06:45.513Z,53.99
2023-04-02T11:09:12.043Z,53.52
2023-04-02T11:11:38.734Z,53.63
2023-04-02T11:14:05.285Z,53.55
2023-04-02T11:16:31.920Z,53.73
2023-04-02T11:18:58.529Z,53.79
2023-04-02T11:21:25.092Z,53.61
2023-04-02T11:23:51.660Z,53.25
2023-04-02T11:26:18.213Z,52.87
2023-04-02T11:28:44.808Z,52.88
2023-04-02T11:31:11.409Z,52.51
2023-04-02T11:33:40.626Z,52.35
2023-04-02T11:36:09.923Z,52.33
2023-04-02T11:38:36.517Z,51.90
2023-04-02T11:41:03.115Z,51.77
2023-04-02T11:43:29.657Z,51.70
2023-04-02T11:45:56.317Z,51.35
2023-04-02T11:48:22.952Z,51.18
2023-04-02T11:50:49.596Z,51.31
2023-04-02T11:53:16.209Z,51.26
2023-04-02T11:55:42.773Z,51.05
2023-04-02T11:58:09.325Z,50.88
2023-04-02T12:00:36.030Z,50.76
2023-04-02T12:03:02.921Z,50.80
2023-04-02T12:05:29.554Z,50.83
2023-04-02T12:07:56.105Z,50.64
2023-04-02T12:10:22.660Z,50.42
2023-04-02T12:12:49.213Z,50.37
2023-04-02T12:15:15.757Z,50.24
2023-04-02T12:17:42.359Z,50.29
2023-04-02T12:20:09.165Z,50.28
2023-04-02T12:22:35.776Z,50.23
2023-04-02T12:25:02.322Z,50.12
2023-04-02T12:27:28.854Z,50.00
2023-04-02T12:29:55.390Z,50.00
2023-04-02T12:32:21.963Z,49.87
2023-04-02T12:34:48.532Z,50.00
2023-04-02T12:37:15.081Z,49.90
2023-04-02T12:39:41.639Z,49.83
2023-04-02T12:42:08.201Z,49.82
2023-04-02T12:44:34.763Z,49.69
2023-04-02T12:47:01.320Z,49.75
2023-04-02T12:49:27.880Z,49.61
2023-04-02T12:51:54.437Z,49.67
2023-04-02T12:54:21.008Z,49.61
2023-04-02T12:56:47.680Z,49.67
2023-04-02T12:59:14.311Z,49.61
2023-04-02T13:01:41.017Z,49.52
2023-04-02T13:04:07.792Z,49.52
2023-04-02T13:06:34.407Z,49.50
2023-04-02T13:09:00.980Z,49.58
2023-04-02T13:11:27.572Z,49.29
2023-04-02T13:13:54.101Z,49.25
2023-04-02T13:16:20.676Z,49.32
2023-04-02T13:18:47.273Z,48.99
2023-04-02T13:21:13.858Z,49.12
2023-04-02T13:23:40.397Z,49.20
2023-04-02T13:26:06.952Z,48.96
2023-04-02T13:28:33.566Z,49.06
2023-04-02T13:31:00.139Z,49.12
2023-04-02T13:33:26.697Z,49.21
2023-04-02T13:35:53.300Z,49.24
2023-04-02T13:38:19.886Z,49.15
2023-04-02T13:40:46.448Z,49.13
2023-04-02T13:43:13.007Z,49.21
2023-04-02T13:45:39.594Z,49.27
2023-04-02T13:48:06.239Z,49.14
2023-04-02T13:50:32.906Z,49.21
2023-04-02T13:52:59.489Z,49.17
2023-04-02T13:55:26.050Z,49.11
2023-04-02T13:57:52.627Z,49.15
2023-04-02T14:00:19.179Z,47.29
2023-04-02T14:02:45.774Z,47.13
2023-04-02T14:05:12.340Z,47.81
2023-04-02T14:07:38.894Z,48.79
2023-04-02T14:10:05.508Z,48.48
2023-04-02T14:12:32.065Z,48.34
2023-04-02T14:14:58.627Z,48.15
2023-04-02T14:17:25.249Z,48.29
2023-04-02T14:19:51.796Z,48.17
2023-04-02T14:22:18.352Z,47.94
2023-04-02T14:24:44.898Z,48.04
2023-04-02T14:27:11.440Z,48.04
2023-04-02T14:29:38.011Z,48.21
2023-04-02T14:32:04.574Z,48.18
2023-04-02T14:34:31.143Z,48.16
2023-04-02T14:36:57.717Z,48.04
2023-04-02T14:39:24.294Z,48.13
2023-04-02T14:41:50.823Z,48.11
2023-04-02T14:44:17.400Z,48.20
2023-04-02T14:46:44.035Z,48.00
2023-04-02T14:49:10.626Z,48.05
2023-04-02T14:51:37.186Z,48.09
2023-04-02T14:54:03.756Z,48.34
2023-04-02T14:56:30.302Z,48.26
2023-04-02T14:58:56.840Z,48.29
2023-04-02T15:01:23.465Z,48.22
2023-04-02T15:03:50.108Z,48.11
2023-04-02T15:06:16.660Z,48.20
2023-04-02T15:08:43.195Z,48.14
2023-04-02T15:11:09.754Z,48.01
2023-04-02T15:13:36.358Z,48.17
2023-04-02T15:16:02.989Z,48.10
2023-04-02T15:18:29.537Z,48.11
2023-04-02T15:20:56.108Z,48.18
2023-04-02T15:23:22.675Z,48.15
2023-04-02T15:25:49.219Z,48.44
2023-04-02T15:28:16.985Z,48.40
2023-04-02T15:30:43.649Z,48.34
2023-04-02T15:33:10.196Z,48.34
2023-04-02T15:35:37.049Z,48.16
2023-04-02T15:38:03.923Z,48.17
2023-04-02T15:40:30.489Z,48.19
2023-04-02T15:42:57.070Z,48.16
2023-04-02T15:45:23.746Z,48.37
2023-04-02T15:47:50.425Z,48.27
2023-04-02T15:50:17.089Z,48.33
2023-04-02T15:52:43.640Z,48.44
2023-04-02T15:55:10.199Z,48.33
2023-04-02T15:57:36.769Z,48.34
2023-04-02T16:00:03.392Z,48.10
2023-04-02T16:02:29.994Z,48.30
2023-04-02T16:04:56.609Z,48.06
2023-04-02T16:07:23.146Z,48.19
2023-04-02T16:09:49.686Z,48.11
2023-04-02T16:12:16.237Z,48.06
2023-04-02T16:14:42.796Z,48.26
2023-04-02T16:17:21.480Z,48.26
2023-04-02T16:19:51.252Z,48.38
2023-04-02T16:22:17.802Z,48.26
2023-04-02T16:24:44.444Z,48.37
2023-04-02T16:27:11.043Z,48.28
2023-04-02T16:29:47.437Z,48.13
2023-04-02T16:32:20.340Z,48.20
2023-04-02T16:34:46.891Z,48.40
2023-04-02T16:37:13.436Z,48.38
2023-04-02T16:39:39.994Z,48.19
2023-04-02T16:42:06.581Z,48.26
2023-04-02T16:44:33.150Z,48.03
2023-04-02T16:46:59.829Z,48.07
2023-04-02T16:49:26.473Z,48.15
2023-04-02T16:51:53.009Z,47.74
2023-04-02T16:54:19.569Z,48.00
2023-04-02T16:56:46.139Z,47.76
2023-04-02T16:59:12.699Z,48.03
2023-04-02T17:01:39.304Z,47.77
2023-04-02T17:04:07.655Z,47.87
2023-04-02T17:06:35.331Z,47.94
2023-04-02T17:09:01.904Z,48.55
2023-04-02T17:11:28.450Z,48.63
2023-04-02T17:13:54.988Z,49.09
2023-04-02T17:16:21.576Z,50.01
2023-04-02T17:18:48.239Z,49.33
2023-04-02T17:21:14.796Z,49.31
2023-04-02T17:23:52.978Z,49.56
2023-04-02T17:26:22.207Z,49.78
2023-04-02T17:28:48.768Z,49.76
2023-04-02T17:31:15.361Z,49.99
2023-04-02T17:33:41.914Z,50.27
2023-04-02T17:36:08.530Z,50.56
2023-04-02T17:38:35.106Z,50.58
2023-04-02T17:41:01.690Z,50.73
2023-04-02T17:43:28.247Z,50.53
2023-04-02T17:45:54.854Z,51.87
2023-04-02T17:48:21.426Z,51.90
2023-04-02T17:50:48.004Z,51.96
2023-04-02T17:53:14.544Z,52.31
2023-04-02T17:55:41.097Z,51.86
2023-04-02T17:58:07.692Z,52.48
2023-04-02T18:00:34.497Z,52.10
2023-04-02T18:03:01.568Z,52.96
2023-04-02T18:05:28.156Z,53.24
2023-04-02T18:07:54.722Z,54.03
2023-04-02T18:10:21.271Z,53.29
2023-04-02T18:12:47.823Z,53.20
2023-04-02T18:15:14.388Z,53.35
2023-04-02T18:17:41.003Z,53.31
2023-04-02T18:20:07.686Z,53.57
2023-04-02T18:22:34.285Z,53.55
2023-04-02T18:25:00.848Z,53.37
2023-04-02T18:27:27.380Z,53.22
2023-04-02T18:29:53.988Z,53.06
2023-04-02T18:32:20.549Z,52.92
2023-04-02T18:34:47.122Z,53.03
2023-04-02T18:37:13.694Z,53.03
2023-04-02T18:39:40.244Z,52.92
2023-04-02T18:42:06.807Z,52.69
2023-04-02T18:44:33.388Z,52.70
2023-04-02T18:46:59.952Z,52.62
2023-04-02T18:49:26.500Z,52.81
2023-04-02T18:51:53.063Z,52.73
2023-04-02T18:54:19.606Z,52.58
2023-04-02T18:56:46.175Z,52.55
2023-04-02T18:59:12.712Z,52.33
2023-04-02T19:01:39.347Z,52.52
2023-04-02T19:04:06.080Z,52.36
2023-04-02T19:06:32.618Z,52.35
2023-04-02T19:08:59.165Z,52.72
2023-04-02T19:11:25.722Z,52.35
2023-04-02T19:13:52.278Z,52.38
2023-04-02T19:16:18.880Z,52.03
2023-04-02T19:18:45.479Z,52.15
2023-04-02T19:21:12.689Z,52.29
2023-04-02T19:23:39.247Z,52.10
2023-04-02T19:26:05.772Z,52.04
2023-04-02T19:28:32.327Z,52.18
2023-04-02T19:30:58.913Z,52.21
2023-04-02T19:33:25.475Z,52.03
2023-04-02T19:35:52.041Z,52.20
2023-04-02T19:38:18.614Z,52.36
2023-04-02T19:40:45.169Z,52.14
2023-04-02T19:43:11.718Z,52.38
2023-04-02T19:45:38.615Z,52.21
2023-04-02T19:48:05.470Z,51.73
2023-04-02T19:50:32.071Z,51.91
2023-04-02T19:52:58.633Z,51.82
2023-04-02T19:55:25.220Z,51.88
2023-04-02T19:57:54.629Z,52.10
2023-04-02T20:00:24.449Z,52.10
2023-04-02T20:02:51.035Z,52.08
2023-04-02T20:05:17.602Z,52.10
2023-04-02T20:07:44.160Z,51.98
2023-04-02T20:10:10.692Z,52.01
2023-04-02T20:12:37.248Z,52.04
2023-04-02T20:15:03.806Z,51.71
2023-04-02T20:17:30.376Z,51.94
2023-04-02T20:19:56.925Z,51.72
2023-04-02T20:22:23.481Z,51.85
2023-04-02T20:24:50.035Z,51.87
2023-04-02T20:27:16.599Z,51.66
2023-04-02T20:29:43.162Z,51.68
2023-04-02T20:32:09.695Z,51.70
2023-04-02T20:34:36.331Z,51.44
2023-04-02T20:37:02.872Z,51.32
2023-04-02T20:39:29.430Z,51.47
2023-04-02T20:41:55.968Z,51.52
2023-04-02T20:44:22.513Z,51.68
2023-04-02T20:46:49.072Z,51.34
2023-04-02T20:49:15.631Z,51.59
2023-04-02T20:51:42.176Z,51.48
2023-04-02T20:54:08.712Z,51.56
2023-04-02T20:56:35.245Z,51.27
2023-04-02T20:59:01.807Z,51.33
2023-04-02T21:01:28.382Z,51.39
2023-04-02T21:03:54.951Z,51.48
2023-04-02T21:06:21.571Z,51.42
2023-04-02T21:08:48.124Z,51.04
2023-04-02T21:11:14.651Z,51.05
2023-04-02T21:13:41.207Z,50.63
2023-04-02T21:16:07.786Z,50.91
2023-04-02T21:18:34.354Z,51.70
2023-04-02T21:21:00.895Z,51.58
2023-04-02T21:23:27.447Z,51.66
2023-04-02T21:25:53.977Z,51.63
2023-04-02T21:28:20.516Z,51.49
2023-04-02T21:30:47.079Z,51.26
2023-04-02T21:33:13.632Z,51.27
2023-04-02T21:35:40.211Z,51.26
2023-04-02T21:38:06.776Z,51.31
2023-04-02T21:40:33.334Z,51.30
2023-04-02T21:42:59.872Z,51.29
2023-04-02T21:45:26.443Z,51.74
2023-04-02T21:47:53.002Z,51.41
2023-04-02T21:50:19.596Z,51.29
2023-04-02T21:52:46.124Z,51.13
2023-04-02T21:55:12.659Z,51.17
2023-04-02T21:57:39.260Z,50.97
2023-04-02T22:00:05.951Z,51.48
2023-04-02T22:02:32.519Z,51.32
2023-04-02T22:04:59.096Z,51.22
2023-04-02T22:07:25.649Z,51.06
2023-04-02T22:09:52.194Z,51.00
2023-04-02T22:12:18.747Z,51.35
2023-04-02T22:14:45.302Z,51.13
2023-04-02T22:17:11.843Z,50.92
2023-04-02T22:19:38.397Z,51.51
2023-04-02T22:22:04.937Z,51.22
2023-04-02T22:24:31.483Z,51.37
2023-04-02T22:26:58.035Z,51.46
2023-04-02T22:29:24.569Z,50.98
2023-04-02T22:31:51.098Z,51.11
2023-04-02T22:34:17.655Z,51.39
2023-04-02T22:36:44.202Z,51.02
2023-04-02T22:39:10.728Z,51.07
2023-04-02T22:41:37.268Z,50.99
2023-04-02T22:44:03.797Z,50.98
2023-04-02T22:46:30.478Z,50.79
2023-04-02T22:48:57.116Z,50.83
2023-04-02T22:51:23.646Z,51.03
2023-04-02T22:53:50.262Z,51.06
2023-04-02T22:56:16.848Z,51.18
2023-04-02T22:58:43.401Z,51.02
2023-04-02T23:01:10.076Z,51.05
2023-04-02T23:03:36.658Z,50.93
2023-04-02T23:06:03.236Z,50.73
2023-04-02T23:08:29.797Z,50.80
2023-04-02T23:10:56.327Z,50.94
2023-04-02T23:13:22.860Z,50.93
2023-04-02T23:15:49.420Z,50.81
2023-04-02T23:18:15.990Z,50.94
2023-04-02T23:20:42.598Z,51.01
2023-04-02T23:23:09.139Z,50.88
2023-04-02T23:25:35.672Z,51.00
2023-04-02T23:28:02.206Z,50.88
2023-04-02T23:30:28.736Z,50.92
2023-04-02T23:32:55.324Z,50.81
2023-04-02T23:35:21.952Z,50.65
2023-04-02T23:37:48.495Z,50.48
2023-04-02T23:40:15.065Z,50.89
2023-04-02T23:42:41.615Z,50.41
2023-04-02T23:45:08.172Z,50.31
2023-04-02T23:47:34.759Z,50.68
2023-04-02T23:50:01.323Z,50.73
2023-04-02T23:52:27.868Z,50.72
2023-04-02T23:54:54.412Z,50.32
2023-04-02T23:57:21.035Z,50.49
2023-04-02T23:59:47.636Z,50.62
